createdAt,value
2022-12-11T00:00:47.810Z,55.97
2022-12-11T00:03:16.475Z,51.50
2022-12-11T00:05:44.615Z,49.75
2022-12-11T00:08:12.305Z,51.30
2022-12-11T00:10:39.129Z,57.90
2022-12-11T00:13:05.664Z,58.80
2022-12-11T00:15:32.243Z,57.37
2022-12-11T00:17:58.716Z,55.08
2022-12-11T00:20:25.115Z,63.30
2022-12-11T00:22:51.536Z,48.55
2022-12-11T00:25:18.061Z,50.25
2022-12-11T00:27:46.018Z,53.07
2022-12-11T00:30:12.925Z,60.67
2022-12-11T00:32:39.314Z,54.05
2022-12-11T00:35:05.768Z,53.75
2022-12-11T00:37:32.199Z,49.20
2022-12-11T00:39:58.677Z,52.20
2022-12-11T00:42:25.015Z,50.53
2022-12-11T00:44:51.437Z,49.50
2022-12-11T00:47:17.827Z,57.13
2022-12-11T00:49:49.530Z,50.67
2022-12-11T00:52:17.724Z,48.83
2022-12-11T00:54:44.360Z,48.30
2022-12-11T00:57:10.726Z,53.38
2022-12-11T00:59:37.352Z,53.88
2022-12-11T01:02:03.760Z,55.17
2022-12-11T01:04:30.138Z,52.20
2022-12-11T01:06:56.549Z,52.33
2022-12-11T01:09:41.459Z,60.25
2022-12-11T01:12:07.851Z,61.38
2022-12-11T01:14:34.207Z,62.60
2022-12-11T01:17:00.733Z,56.30
2022-12-11T01:19:27.209Z,58.92
2022-12-11T01:21:53.618Z,55.67
2022-12-11T01:24:20.010Z,61.33
2022-12-11T01:26:46.366Z,66.40
2022-12-11T01:29:12.747Z,66.30
2022-12-11T01:31:39.190Z,71.45
2022-12-11T01:34:05.605Z,64.03
2022-12-11T01:36:32.009Z,65.43
2022-12-11T01:38:58.432Z,60.65
2022-12-11T01:41:24.885Z,66.27
2022-12-11T01:44:27.892Z,64.07
2022-12-11T01:46:54.402Z,68.28
2022-12-11T01:49:25.982Z,69.13
2022-12-11T01:52:01.732Z,69.38
2022-12-11T01:54:29.549Z,57.17
2022-12-11T01:57:06.100Z,67.40
2022-12-11T01:59:35.974Z,55.42
2022-12-11T02:02:15.176Z,60.53
2022-12-11T02:04:43.004Z,67.53
2022-12-11T02:07:09.846Z,56.87
2022-12-11T02:09:38.985Z,71.32
2022-12-11T02:12:30.921Z,60.72
2022-12-11T02:15:03.475Z,52.13
2022-12-11T02:17:38.536Z,56.90
2022-12-11T02:20:11.539Z,52.40
2022-12-11T02:22:46.683Z,51.88
2022-12-11T02:25:22.161Z,61.30
2022-12-11T02:27:58.920Z,51.03
2022-12-11T02:30:25.570Z,57.53
2022-12-11T02:32:57.776Z,50.10
2022-12-11T02:35:39.884Z,53.50
2022-12-11T02:38:13.432Z,54.17
2022-12-11T02:40:42.178Z,53.75
2022-12-11T02:43:12.922Z,57.85
2022-12-11T02:45:42.000Z,53.07
2022-12-11T02:48:10.703Z,49.97
2022-12-11T02:50:42.343Z,56.03
2022-12-11T02:53:12.711Z,48.47
2022-12-11T02:55:42.368Z,52.78
2022-12-11T02:58:14.439Z,46.33
2022-12-11T03:00:40.917Z,57.40
2022-12-11T03:03:07.585Z,53.00
2022-12-11T03:05:33.971Z,65.40
2022-12-11T03:08:01.717Z,51.67
2022-12-11T03:10:28.154Z,53.03
2022-12-11T03:12:56.833Z,50.80
2022-12-11T03:15:33.809Z,49.55
2022-12-11T03:18:15.326Z,49.88
2022-12-11T03:20:45.160Z,47.13
2022-12-11T03:23:27.334Z,53.87
2022-12-11T03:25:59.337Z,46.35
2022-12-11T03:28:47.815Z,47.00
2022-12-11T03:31:24.347Z,50.97
2022-12-11T03:33:55.460Z,43.47
2022-12-11T03:36:27.114Z,45.97
2022-12-11T03:38:58.751Z,45.58
2022-12-11T03:41:28.727Z,46.90
2022-12-11T03:43:58.247Z,40.95
2022-12-11T03:46:30.584Z,44.83
2022-12-11T03:49:01.711Z,41.97
2022-12-11T03:51:31.006Z,41.83
2022-12-11T03:53:58.338Z,45.65
2022-12-11T03:56:28.454Z,40.58
2022-12-11T03:58:54.839Z,38.42
2022-12-11T04:01:21.453Z,38.20
2022-12-11T04:03:47.898Z,40.20
2022-12-11T04:06:14.365Z,40.03
2022-12-11T04:08:40.746Z,36.85
2022-12-11T04:11:25.776Z,37.80
2022-12-11T04:14:12.357Z,38.23
2022-12-11T04:16:38.755Z,37.03
2022-12-11T04:19:24.092Z,33.90
2022-12-11T04:22:08.880Z,33.75
2022-12-11T04:24:35.264Z,39.13
2022-12-11T04:27:01.640Z,38.07
2022-12-11T04:29:27.983Z,33.90
2022-12-11T04:31:54.492Z,37.78
2022-12-11T04:34:21.039Z,36.33
2022-12-11T04:36:47.396Z,30.02
2022-12-11T04:39:13.810Z,32.97
2022-12-11T04:41:41.505Z,28.90
2022-12-11T04:44:08.103Z,31.77
2022-12-11T04:46:35.641Z,31.23
2022-12-11T04:49:02.189Z,32.85
2022-12-11T04:51:29.203Z,36.27
2022-12-11T04:53:55.614Z,29.20
2022-12-11T04:56:21.995Z,31.25
2022-12-11T04:58:48.407Z,33.40
2022-12-11T05:01:18.116Z,27.63
2022-12-11T05:03:44.934Z,33.10
2022-12-11T05:06:11.583Z,29.65
2022-12-11T05:08:40.263Z,29.35
2022-12-11T05:11:09.757Z,26.95
2022-12-11T05:13:36.246Z,26.17
2022-12-11T05:16:07.329Z,27.83
2022-12-11T05:18:34.164Z,25.38
2022-12-11T05:21:03.591Z,30.42
2022-12-11T05:23:30.346Z,27.35
2022-12-11T05:25:59.122Z,29.77
2022-12-11T05:28:29.103Z,23.90
2022-12-11T05:31:01.056Z,25.67
2022-12-11T05:33:28.488Z,25.73
2022-12-11T05:35:55.347Z,25.15
2022-12-11T05:38:22.532Z,26.48
2022-12-11T05:40:59.161Z,24.27
2022-12-11T05:43:27.213Z,25.05
2022-12-11T05:45:53.894Z,27.30
2022-12-11T05:48:20.266Z,26.52
2022-12-11T05:50:56.796Z,22.83
2022-12-11T05:53:23.237Z,23.47
2022-12-11T05:55:49.587Z,24.67
2022-12-11T05:58:16.022Z,26.92
2022-12-11T06:00:42.968Z,26.13
2022-12-11T06:03:09.530Z,27.52
2022-12-11T06:05:40.566Z,26.43
2022-12-11T06:08:07.154Z,24.42
2022-12-11T06:10:33.987Z,24.60
2022-12-11T06:13:00.410Z,29.50
2022-12-11T06:15:27.207Z,24.95
2022-12-11T06:17:53.613Z,29.43
2022-12-11T06:20:20.218Z,23.25
2022-12-11T06:22:46.719Z,22.98
2022-12-11T06:25:13.962Z,27.48
2022-12-11T06:27:40.369Z,26.10
2022-12-11T06:30:07.953Z,25.70
2022-12-11T06:32:34.293Z,28.08
2022-12-11T06:35:00.706Z,29.10
2022-12-11T06:37:27.046Z,31.15
2022-12-11T06:39:53.365Z,27.40
2022-12-11T06:42:19.705Z,24.30
2022-12-11T06:44:46.066Z,29.73
2022-12-11T06:47:12.401Z,25.55
2022-12-11T06:49:38.723Z,25.88
2022-12-11T06:52:06.075Z,27.17
2022-12-11T06:54:32.560Z,29.37
2022-12-11T06:56:58.942Z,29.63
2022-12-11T06:59:25.274Z,31.67
2022-12-11T07:01:51.720Z,25.95
2022-12-11T07:04:18.206Z,34.25
2022-12-11T07:06:44.619Z,31.57
2022-12-11T07:09:11.122Z,31.30
2022-12-11T07:11:37.576Z,33.78
2022-12-11T07:14:03.931Z,31.58
2022-12-11T07:16:30.391Z,33.85
2022-12-11T07:18:56.830Z,32.93
2022-12-11T07:21:23.239Z,37.28
2022-12-11T07:23:50.437Z,33.75
2022-12-11T07:26:19.282Z,33.30
2022-12-11T07:28:45.766Z,35.75
2022-12-11T07:31:21.575Z,32.83
2022-12-11T07:33:47.981Z,32.10
2022-12-11T07:36:15.209Z,32.95
2022-12-11T07:38:41.643Z,33.67
2022-12-11T07:41:12.372Z,38.67
2022-12-11T07:43:39.319Z,32.03
2022-12-11T07:46:08.913Z,36.67
2022-12-11T07:48:36.252Z,32.65
2022-12-11T07:51:18.951Z,32.00
2022-12-11T07:53:47.897Z,29.42
2022-12-11T07:56:15.637Z,28.63
2022-12-11T07:58:42.495Z,36.95
2022-12-11T08:01:36.363Z,31.42
2022-12-11T08:04:04.742Z,27.27
2022-12-11T08:06:33.452Z,28.05
2022-12-11T08:09:01.482Z,32.67
2022-12-11T08:11:28.885Z,27.90
2022-12-11T08:13:55.318Z,29.55
2022-12-11T08:16:21.872Z,29.02
2022-12-11T08:18:48.908Z,30.15
2022-12-11T08:21:21.112Z,28.83
2022-12-11T08:23:48.167Z,27.75
2022-12-11T08:26:29.923Z,26.23
2022-12-11T08:28:56.735Z,31.67
2022-12-11T08:31:24.064Z,30.40
2022-12-11T08:33:51.572Z,33.03
2022-12-11T08:36:20.271Z,30.92
2022-12-11T08:38:46.947Z,28.58
2022-12-11T08:41:28.081Z,29.88
2022-12-11T08:43:55.682Z,27.10
2022-12-11T08:46:27.792Z,31.23
2022-12-11T08:48:55.693Z,28.67
2022-12-11T08:51:24.282Z,32.70
2022-12-11T08:53:51.399Z,26.25
2022-12-11T08:56:20.209Z,24.27
2022-12-11T08:58:46.996Z,25.93
2022-12-11T09:01:16.998Z,26.90
2022-12-11T09:03:44.051Z,23.98
2022-12-11T09:06:16.655Z,22.80
2022-12-11T09:08:51.716Z,24.67
2022-12-11T09:11:23.953Z,25.47
2022-12-11T09:13:50.547Z,26.65
2022-12-11T09:16:19.289Z,28.17
2022-12-11T09:18:48.058Z,27.70
2022-12-11T09:21:17.054Z,25.98
2022-12-11T09:23:44.389Z,27.43
2022-12-11T09:26:13.460Z,27.40
2022-12-11T09:28:44.452Z,28.70
2022-12-11T09:31:34.105Z,26.25
2022-12-11T09:34:03.264Z,28.73
2022-12-11T09:36:30.036Z,27.57
2022-12-11T09:39:00.345Z,27.75
2022-12-11T09:41:51.331Z,29.48
2022-12-11T09:44:30.754Z,25.33
2022-12-11T09:46:58.051Z,26.40
2022-12-11T09:49:42.787Z,25.03
2022-12-11T09:52:23.614Z,28.30
2022-12-11T09:54:57.939Z,26.80
2022-12-11T09:57:34.946Z,24.98
2022-12-11T10:00:28.630Z,26.38
2022-12-11T10:03:35.716Z,27.10
2022-12-11T10:06:44.030Z,24.25
2022-12-11T10:09:35.927Z,23.80
2022-12-11T10:12:05.423Z,24.75
2022-12-11T10:14:45.700Z,24.67
2022-12-11T10:17:42.040Z,25.17
2022-12-11T10:20:39.086Z,24.58
2022-12-11T10:23:08.317Z,28.40
2022-12-11T10:25:41.935Z,31.55
2022-12-11T10:28:16.825Z,24.85
2022-12-11T10:31:13.879Z,28.07
2022-12-11T10:34:02.230Z,24.05
2022-12-11T10:36:32.342Z,27.65
2022-12-11T10:38:59.178Z,22.40
2022-12-11T10:41:41.805Z,23.08
2022-12-11T10:44:34.812Z,27.33
2022-12-11T10:47:14.548Z,22.58
2022-12-11T10:49:54.222Z,21.63
2022-12-11T10:52:26.372Z,25.05
2022-12-11T10:55:04.367Z,24.52
2022-12-11T10:57:34.643Z,23.30
2022-12-11T11:00:02.348Z,25.90
2022-12-11T11:02:40.133Z,23.30
2022-12-11T11:05:26.976Z,25.10
2022-12-11T11:08:04.602Z,22.63
2022-12-11T11:10:31.468Z,21.80
2022-12-11T11:13:02.375Z,23.50
2022-12-11T11:15:30.549Z,23.67
2022-12-11T11:18:04.226Z,23.30
2022-12-11T11:20:34.109Z,25.75
2022-12-11T11:23:11.909Z,22.53
2022-12-11T11:25:38.470Z,18.67
2022-12-11T11:28:07.717Z,22.80
2022-12-11T11:30:36.789Z,22.10
2022-12-11T11:33:12.858Z,18.77
2022-12-11T11:35:45.503Z,20.30
2022-12-11T11:38:22.208Z,20.00
2022-12-11T11:41:15.891Z,20.85
2022-12-11T11:43:44.014Z,22.77
2022-12-11T11:46:27.868Z,20.45
2022-12-11T11:49:12.066Z,23.00
2022-12-11T11:51:54.967Z,22.48
2022-12-11T11:54:47.268Z,20.65
2022-12-11T11:57:20.634Z,21.10
2022-12-11T11:59:54.879Z,22.50
2022-12-11T12:02:21.764Z,21.20
2022-12-11T12:04:51.217Z,23.10
2022-12-11T12:07:51.049Z,19.60
2022-12-11T12:10:26.400Z,23.10
2022-12-11T12:13:30.072Z,18.85
2022-12-11T12:15:59.408Z,20.80
2022-12-11T12:18:47.675Z,18.05
2022-12-11T12:21:20.019Z,19.15
2022-12-11T12:24:04.684Z,20.70
2022-12-11T12:26:34.265Z,19.52
2022-12-11T12:29:03.525Z,22.63
2022-12-11T12:31:47.994Z,20.65
2022-12-11T12:34:34.669Z,21.17
2022-12-11T12:37:45.112Z,21.45
2022-12-11T12:40:43.801Z,20.50
2022-12-11T12:43:43.993Z,18.13
2022-12-11T12:46:37.974Z,18.00
2022-12-11T12:49:08.226Z,21.08
2022-12-11T12:51:34.741Z,19.08
2022-12-11T12:54:07.770Z,21.95
2022-12-11T12:56:38.178Z,19.23
2022-12-11T12:59:04.612Z,20.15
2022-12-11T13:01:31.587Z,20.75
2022-12-11T13:04:02.201Z,22.67
2022-12-11T13:06:37.468Z,25.20
2022-12-11T13:09:23.644Z,23.50
2022-12-11T13:11:57.794Z,24.17
2022-12-11T13:14:31.792Z,22.63
2022-12-11T13:17:26.254Z,24.05
2022-12-11T13:20:11.373Z,21.02
2022-12-11T13:22:53.450Z,23.10
2022-12-11T13:25:28.624Z,22.98
2022-12-11T13:28:07.048Z,21.08
2022-12-11T13:30:34.521Z,21.90
2022-12-11T13:33:03.392Z,20.88
2022-12-11T13:35:31.911Z,22.00
2022-12-11T13:38:05.002Z,26.52
2022-12-11T13:40:39.645Z,28.15
2022-12-11T13:43:15.954Z,27.50
2022-12-11T13:45:42.398Z,23.35
2022-12-11T13:48:31.950Z,23.17
2022-12-11T13:50:59.465Z,23.55
2022-12-11T13:53:26.487Z,24.15
2022-12-11T13:56:04.951Z,25.20
2022-12-11T13:58:35.156Z,22.17
2022-12-11T14:01:11.064Z,29.97
2022-12-11T14:03:53.466Z,27.25
2022-12-11T14:06:19.942Z,23.70
2022-12-11T14:08:51.577Z,28.35
2022-12-11T14:11:34.147Z,26.83
2022-12-11T14:14:03.399Z,28.63
2022-12-11T14:16:30.608Z,30.05
2022-12-11T14:19:05.242Z,24.83
2022-12-11T14:21:32.063Z,29.98
2022-12-11T14:24:00.914Z,28.75
2022-12-11T14:26:33.066Z,29.20
2022-12-11T14:29:00.020Z,29.10
2022-12-11T14:31:31.794Z,27.00
2022-12-11T14:34:03.036Z,28.02
2022-12-11T14:36:30.885Z,30.08
2022-12-11T14:39:10.458Z,24.47
2022-12-11T14:41:46.963Z,28.15
2022-12-11T14:44:16.780Z,28.23
2022-12-11T14:46:50.337Z,31.23
2022-12-11T14:49:45.877Z,31.67
2022-12-11T14:52:35.799Z,30.80
2022-12-11T14:55:09.307Z,33.13
2022-12-11T14:57:36.733Z,27.48
2022-12-11T15:00:05.811Z,30.00
2022-12-11T15:02:34.942Z,28.17
2022-12-11T15:05:18.165Z,30.57
2022-12-11T15:08:24.243Z,30.08
2022-12-11T15:11:08.806Z,29.92
2022-12-11T15:13:38.833Z,32.22
2022-12-11T15:16:07.387Z,30.65
2022-12-11T15:18:37.720Z,26.07
2022-12-11T15:21:09.258Z,31.27
2022-12-11T15:23:44.678Z,33.20
2022-12-11T15:26:11.444Z,28.60
2022-12-11T15:28:39.064Z,26.80
2022-12-11T15:31:22.132Z,28.43
2022-12-11T15:33:48.571Z,29.20
2022-12-11T15:36:26.780Z,27.52
2022-12-11T15:38:53.203Z,30.95
2022-12-11T15:41:26.209Z,33.30
2022-12-11T15:43:58.665Z,30.23
2022-12-11T15:46:26.178Z,27.02
2022-12-11T15:48:52.605Z,28.80
2022-12-11T15:51:19.161Z,30.63
2022-12-11T15:53:45.568Z,27.30
2022-12-11T15:56:16.527Z,33.13
2022-12-11T15:58:45.152Z,27.95
2022-12-11T16:01:12.115Z,26.20
2022-12-11T16:03:38.661Z,30.48
2022-12-11T16:06:05.258Z,31.92
2022-12-11T16:08:31.740Z,30.63
2022-12-11T16:10:58.141Z,27.35
2022-12-11T16:13:24.586Z,29.02
2022-12-11T16:15:52.165Z,32.22
2022-12-11T16:18:21.699Z,28.13
2022-12-11T16:20:48.902Z,26.03
2022-12-11T16:23:17.195Z,30.95
2022-12-11T16:25:45.498Z,28.85
2022-12-11T16:28:14.109Z,28.10
2022-12-11T16:30:40.854Z,29.38
2022-12-11T16:33:12.411Z,25.37
2022-12-11T16:35:41.250Z,28.95
2022-12-11T16:38:08.160Z,27.73
2022-12-11T16:40:34.607Z,25.60
2022-12-11T16:43:00.974Z,31.17
2022-12-11T16:45:27.447Z,27.90
2022-12-11T16:47:54.214Z,27.73
2022-12-11T16:50:20.835Z,26.83
2022-12-11T16:52:47.319Z,27.23
2022-12-11T16:55:15.585Z,28.63
2022-12-11T16:57:42.338Z,28.40
2022-12-11T17:00:12.096Z,25.60
2022-12-11T17:02:38.828Z,23.92
2022-12-11T17:05:05.575Z,29.95
2022-12-11T17:07:33.185Z,30.08
2022-12-11T17:10:01.786Z,25.30
2022-12-11T17:12:28.219Z,29.95
2022-12-11T17:14:55.865Z,27.65
2022-12-11T17:17:22.405Z,32.33
2022-12-11T17:19:49.085Z,30.08
2022-12-11T17:22:15.510Z,27.80
2022-12-11T17:24:41.911Z,29.95
2022-12-11T17:27:08.310Z,25.05
2022-12-11T17:29:34.830Z,30.70
2022-12-11T17:32:03.146Z,28.38
2022-12-11T17:34:34.618Z,23.60
2022-12-11T17:37:04.791Z,22.48
2022-12-11T17:39:31.231Z,23.20
2022-12-11T17:41:57.587Z,21.05
2022-12-11T17:44:24.483Z,24.17
2022-12-11T17:46:50.960Z,29.63
2022-12-11T17:49:17.367Z,25.08
2022-12-11T17:51:43.823Z,21.83
2022-12-11T17:54:10.259Z,27.58
2022-12-11T17:56:36.792Z,23.13
2022-12-11T17:59:03.927Z,22.77
2022-12-11T18:01:30.438Z,25.25
2022-12-11T18:04:00.159Z,26.70
2022-12-11T18:06:27.169Z,30.67
2022-12-11T18:08:53.706Z,25.08
2022-12-11T18:11:23.893Z,24.60
2022-12-11T18:13:52.601Z,27.25
2022-12-11T18:16:24.437Z,27.80
2022-12-11T18:18:51.316Z,27.98
2022-12-11T18:21:21.990Z,26.10
2022-12-11T18:23:50.074Z,24.83
2022-12-11T18:26:18.290Z,23.77
2022-12-11T18:28:45.633Z,24.52
2022-12-11T18:31:13.451Z,26.65
2022-12-11T18:33:42.019Z,24.08
2022-12-11T18:36:09.485Z,24.73
2022-12-11T18:38:36.278Z,23.20
2022-12-11T18:41:04.799Z,22.45
2022-12-11T18:43:31.267Z,24.25
2022-12-11T18:45:57.716Z,23.88
2022-12-11T18:48:24.546Z,22.70
2022-12-11T18:50:52.201Z,25.13
2022-12-11T18:53:19.530Z,22.30
2022-12-11T18:55:48.465Z,21.33
2022-12-11T18:58:20.481Z,27.35
2022-12-11T19:00:46.985Z,21.17
2022-12-11T19:03:14.063Z,23.95
2022-12-11T19:05:43.584Z,20.35
2022-12-11T19:08:12.473Z,21.73
2022-12-11T19:10:46.354Z,21.67
2022-12-11T19:13:14.019Z,20.27
2022-12-11T19:15:41.988Z,19.25
2022-12-11T19:18:09.399Z,16.75
2022-12-11T19:20:48.951Z,20.13
2022-12-11T19:23:16.549Z,18.02
2022-12-11T19:25:45.490Z,19.67
2022-12-11T19:28:12.756Z,17.63
2022-12-11T19:30:47.482Z,17.48
2022-12-11T19:33:14.945Z,19.83
2022-12-11T19:35:41.770Z,18.70
2022-12-11T19:38:08.914Z,17.03
2022-12-11T19:40:40.741Z,17.13
2022-12-11T19:43:07.134Z,16.70
2022-12-11T19:45:33.556Z,17.52
2022-12-11T19:47:59.933Z,17.90
2022-12-11T19:50:26.555Z,15.93
2022-12-11T19:52:52.948Z,17.33
2022-12-11T19:55:21.478Z,20.23
2022-12-11T19:57:47.972Z,16.95
2022-12-11T20:00:14.721Z,18.88
2022-12-11T20:02:41.064Z,19.13
2022-12-11T20:05:08.078Z,19.05
2022-12-11T20:07:34.423Z,17.52
2022-12-11T20:10:00.779Z,20.65
2022-12-11T20:12:27.306Z,23.58
2022-12-11T20:14:53.712Z,19.10
2022-12-11T20:17:20.149Z,18.55
2022-12-11T20:19:46.631Z,19.50
2022-12-11T20:22:13.112Z,18.30
2022-12-11T20:24:39.788Z,17.02
2022-12-11T20:27:06.315Z,18.10
2022-12-11T20:29:32.874Z,17.33
2022-12-11T20:32:00.359Z,18.17
2022-12-11T20:34:27.287Z,20.05
2022-12-11T20:36:54.568Z,18.38
2022-12-11T20:39:21.022Z,19.13
2022-12-11T20:41:47.431Z,22.63
2022-12-11T20:44:13.883Z,22.20
2022-12-11T20:46:40.775Z,24.00
2022-12-11T20:49:12.564Z,23.10
2022-12-11T20:51:40.117Z,20.53
2022-12-11T20:54:06.590Z,22.38
2022-12-11T20:56:33.070Z,18.42
2022-12-11T20:58:59.970Z,22.67
2022-12-11T21:01:30.681Z,18.73
2022-12-11T21:03:57.933Z,17.63
2022-12-11T21:06:33.015Z,21.08
2022-12-11T21:09:02.171Z,17.55
2022-12-11T21:11:29.290Z,20.10
2022-12-11T21:13:55.861Z,21.80
2022-12-11T21:16:22.964Z,18.07
2022-12-11T21:18:49.544Z,20.90
2022-12-11T21:21:16.534Z,19.70
2022-12-11T21:23:43.338Z,21.02
2022-12-11T21:26:09.854Z,19.17
2022-12-11T21:28:36.440Z,18.67
2022-12-11T21:31:05.791Z,19.10
2022-12-11T21:33:32.200Z,20.10
2022-12-11T21:35:59.397Z,17.33
2022-12-11T21:38:26.823Z,19.80
2022-12-11T21:40:54.045Z,16.00
2022-12-11T21:43:20.508Z,17.98
2022-12-11T21:46:02.870Z,19.30
2022-12-11T21:48:29.450Z,21.95
2022-12-11T21:51:03.778Z,18.20
2022-12-11T21:53:30.214Z,16.70
2022-12-11T21:55:56.603Z,15.45
2022-12-11T21:58:22.974Z,18.10
2022-12-11T22:00:49.779Z,18.10
2022-12-11T22:03:16.187Z,16.80
2022-12-11T22:05:42.529Z,22.20
2022-12-11T22:08:08.999Z,21.45
2022-12-11T22:10:35.403Z,22.58
2022-12-11T22:13:02.216Z,22.02
2022-12-11T22:15:28.553Z,17.88
2022-12-11T22:17:54.927Z,21.57
2022-12-11T22:20:21.301Z,19.13
2022-12-11T22:22:47.742Z,19.02
2022-12-11T22:25:14.392Z,22.08
2022-12-11T22:27:41.124Z,20.27
2022-12-11T22:30:08.238Z,19.40
2022-12-11T22:32:34.662Z,22.33
2022-12-11T22:35:01.078Z,19.20
2022-12-11T22:37:27.493Z,21.67
2022-12-11T22:39:53.881Z,19.52
2022-12-11T22:42:20.605Z,19.40
2022-12-11T22:44:47.038Z,20.33
2022-12-11T22:47:13.431Z,23.05
2022-12-11T22:49:39.796Z,17.00
2022-12-11T22:52:06.246Z,17.83
2022-12-11T22:54:32.606Z,18.00
2022-12-11T22:56:59.073Z,19.02
2022-12-11T22:59:25.457Z,21.75
2022-12-11T23:01:51.861Z,18.77
2022-12-11T23:04:18.266Z,20.48
2022-12-11T23:06:44.669Z,19.80
2022-12-11T23:09:11.181Z,18.90
2022-12-11T23:11:38.494Z,19.55
2022-12-11T23:14:07.656Z,19.80
2022-12-11T23:16:34.751Z,19.42
2022-12-11T23:19:01.203Z,20.83
2022-12-11T23:21:28.799Z,20.63
2022-12-11T23:23:56.195Z,18.27
2022-12-11T23:26:23.341Z,19.58
2022-12-11T23:28:50.274Z,23.38
2022-12-11T23:31:17.816Z,17.53
2022-12-11T23:33:44.757Z,18.48
2022-12-11T23:36:12.087Z,19.30
2022-12-11T23:38:39.443Z,20.05
2022-12-11T23:41:07.670Z,20.33
2022-12-11T23:43:35.586Z,19.03
2022-12-11T23:46:03.918Z,19.02
2022-12-11T23:48:31.200Z,17.88
2022-12-11T23:51:01.940Z,18.60
2022-12-11T23:53:29.095Z,21.30
2022-12-11T23:55:55.668Z,22.23
2022-12-11T23:58:22.354Z,22.55
